sensor_id;sensor_type;location;lat;lon;timestamp;pressure;altitude;pressure_sealevel;temperature;humidity
70445;BME280;57902;49.638;11.070;2023-05-17T00:00:53;98581.38;;;5.39;93.14
70445;BME280;57902;49.638;11.070;2023-05-17T00:03:20;98596.69;;;5.36;94.01
70445;BME280;57902;49.638;11.070;2023-05-17T00:05:47;98599.28;;;5.31;92.69
70445;BME280;57902;49.638;11.070;2023-05-17T00:08:13;98595.88;;;5.32;92.42
70445;BME280;57902;49.638;11.070;2023-05-17T00:10:40;98596.72;;;5.31;93.26
70445;BME280;57902;49.638;11.070;2023-05-17T00:13:06;98594.16;;;5.34;92.76
70445;BME280;57902;49.638;11.070;2023-05-17T00:15:33;98594.19;;;5.26;92.61
70445;BME280;57902;49.638;11.070;2023-05-17T00:18:00;98592.50;;;5.21;91.78
70445;BME280;57902;49.638;11.070;2023-05-17T00:20:26;98592.50;;;5.15;93.19
70445;BME280;57902;49.638;11.070;2023-05-17T00:22:53;98594.22;;;5.16;92.93
70445;BME280;57902;49.638;11.070;2023-05-17T00:25:19;98594.25;;;5.13;94.21
70445;BME280;57902;49.638;11.070;2023-05-17T00:27:46;98598.50;;;5.07;93.02
70445;BME280;57902;49.638;11.070;2023-05-17T00:30:13;98597.66;;;5.05;93.92
70445;BME280;57902;49.638;11.070;2023-05-17T00:32:39;98606.19;;;5.01;93.38
70445;BME280;57902;49.638;11.070;2023-05-17T00:35:06;98601.94;;;4.94;92.97
70445;BME280;57902;49.638;11.070;2023-05-17T00:37:33;98608.75;;;4.90;94.04
70445;BME280;57902;49.638;11.070;2023-05-17T00:39:59;98607.06;;;4.86;94.63
70445;BME280;57902;49.638;11.070;2023-05-17T00:42:26;98611.31;;;4.80;93.85
70445;BME280;57902;49.638;11.070;2023-05-17T00:44:52;98613.03;;;4.78;95.31
70445;BME280;57902;49.638;11.070;2023-05-17T00:47:19;98607.06;;;4.77;93.06
70445;BME280;57902;49.638;11.070;2023-05-17T00:49:45;98610.47;;;4.76;92.91
70445;BME280;57902;49.638;11.070;2023-05-17T00:52:12;98608.78;;;4.73;92.79
70445;BME280;57902;49.638;11.070;2023-05-17T00:54:39;98603.66;;;4.72;93.90
70445;BME280;57902;49.638;11.070;2023-05-17T00:57:06;98612.19;;;4.71;95.12
70445;BME280;57902;49.638;11.070;2023-05-17T00:59:33;98619.84;;;4.72;94.88
70445;BME280;57902;49.638;11.070;2023-05-17T01:02:00;98615.59;;;4.68;95.13
70445;BME280;57902;49.638;11.070;2023-05-17T01:04:28;98614.72;;;4.68;94.33
70445;BME280;57902;49.638;11.070;2023-05-17T01:06:55;98618.13;;;4.65;95.77
70445;BME280;57902;49.638;11.070;2023-05-17T01:09:22;98611.34;;;4.61;95.97
70445;BME280;57902;49.638;11.070;2023-05-17T01:17:37;98625.81;;;4.54;95.81
70445;BME280;57902;49.638;11.070;2023-05-17T01:26:00;98630.91;;;4.42;96.04
70445;BME280;57902;49.638;11.070;2023-05-17T01:28:30;98630.03;;;4.35;96.51
70445;BME280;57902;49.638;11.070;2023-05-17T01:30:58;98633.44;;;4.34;96.39
70445;BME280;57902;49.638;11.070;2023-05-17T01:33:26;98634.31;;;4.32;97.09
70445;BME280;57902;49.638;11.070;2023-05-17T01:35:53;98630.88;;;4.33;97.02
70445;BME280;57902;49.638;11.070;2023-05-17T01:38:19;98630.88;;;4.31;96.40
70445;BME280;57902;49.638;11.070;2023-05-17T01:44:05;98643.66;;;4.22;97.01
70445;BME280;57902;49.638;11.070;2023-05-17T01:46:40;98643.63;;;4.19;97.93
70445;BME280;57902;49.638;11.070;2023-05-17T01:49:17;98635.16;;;4.18;97.00
70445;BME280;57902;49.638;11.070;2023-05-17T01:51:50;98640.22;;;4.14;96.90
70445;BME280;57902;49.638;11.070;2023-05-17T01:54:25;98641.91;;;4.09;97.99
70445;BME280;57902;49.638;11.070;2023-05-17T01:56:58;98647.88;;;4.08;98.31
70445;BME280;57902;49.638;11.070;2023-05-17T01:59:25;98646.16;;;4.05;97.29
70445;BME280;57902;49.638;11.070;2023-05-17T02:01:58;98647.84;;;4.05;97.89
70445;BME280;57902;49.638;11.070;2023-05-17T02:04:31;98651.25;;;4.02;98.23
70445;BME280;57902;49.638;11.070;2023-05-17T02:06:58;98650.41;;;4.03;97.82
70445;BME280;57902;49.638;11.070;2023-05-17T02:09:24;98647.00;;;4.04;97.62
70445;BME280;57902;49.638;11.070;2023-05-17T02:11:51;98646.13;;;3.97;98.35
70445;BME280;57902;49.638;11.070;2023-05-17T02:14:17;98651.22;;;3.94;98.74
70445;BME280;57902;49.638;11.070;2023-05-17T02:16:44;98653.78;;;3.91;98.69
70445;BME280;57902;49.638;11.070;2023-05-17T02:19:11;98652.94;;;3.89;97.87
70445;BME280;57902;49.638;11.070;2023-05-17T02:21:38;98659.72;;;3.93;99.16
70445;BME280;57902;49.638;11.070;2023-05-17T02:24:05;98654.59;;;3.87;99.21
70445;BME280;57902;49.638;11.070;2023-05-17T02:26:32;98661.41;;;3.87;99.31
70445;BME280;57902;49.638;11.070;2023-05-17T02:28:58;98657.97;;;3.77;100.00
70445;BME280;57902;49.638;11.070;2023-05-17T02:31:25;98658.81;;;3.77;100.00
70445;BME280;57902;49.638;11.070;2023-05-17T02:33:55;98652.03;;;3.72;100.00
70445;BME280;57902;49.638;11.070;2023-05-17T02:36:22;98659.66;;;3.68;100.00
70445;BME280;57902;49.638;11.070;2023-05-17T02:38:48;98661.34;;;3.70;100.00
70445;BME280;57902;49.638;11.070;2023-05-17T02:41:15;98658.78;;;3.66;100.00
70445;BME280;57902;49.638;11.070;2023-05-17T02:43:41;98669.81;;;3.64;100.00
70445;BME280;57902;49.638;11.070;2023-05-17T02:46:08;98667.25;;;3.65;100.00
70445;BME280;57902;49.638;11.070;2023-05-17T02:48:34;98663.00;;;3.58;100.00
70445;BME280;57902;49.638;11.070;2023-05-17T02:51:01;98667.22;;;3.52;100.00
70445;BME280;57902;49.638;11.070;2023-05-17T02:53:27;98670.59;;;3.49;100.00
70445;BME280;57902;49.638;11.070;2023-05-17T02:55:54;98665.50;;;3.49;100.00
70445;BME280;57902;49.638;11.070;2023-05-17T02:58:24;98670.59;;;3.52;100.00
70445;BME280;57902;49.638;11.070;2023-05-17T03:00:50;98668.94;;;3.54;100.00
70445;BME280;57902;49.638;11.070;2023-05-17T03:03:17;98679.97;;;3.52;100.00
70445;BME280;57902;49.638;11.070;2023-05-17T03:05:44;98685.91;;;3.52;100.00
70445;BME280;57902;49.638;11.070;2023-05-17T03:08:10;98685.91;;;3.52;100.00
70445;BME280;57902;49.638;11.070;2023-05-17T03:10:37;98683.34;;;3.47;100.00
70445;BME280;57902;49.638;11.070;2023-05-17T03:13:03;98692.66;;;3.44;100.00
70445;BME280;57902;49.638;11.070;2023-05-17T03:15:30;98690.97;;;3.43;100.00
70445;BME280;57902;49.638;11.070;2023-05-17T03:17:57;98691.78;;;3.40;100.00
70445;BME280;57902;49.638;11.070;2023-05-17T03:20:23;98696.88;;;3.37;100.00
70445;BME280;57902;49.638;11.070;2023-05-17T03:22:50;98702.81;;;3.38;100.00
70445;BME280;57902;49.638;11.070;2023-05-17T03:25:16;98707.06;;;3.37;100.00
70445;BME280;57902;49.638;11.070;2023-05-17T03:27:43;98712.13;;;3.29;100.00
70445;BME280;57902;49.638;11.070;2023-05-17T03:30:10;98706.13;;;3.27;100.00
70445;BME280;57902;49.638;11.070;2023-05-17T03:32:38;98706.13;;;3.26;100.00
70445;BME280;57902;49.638;11.070;2023-05-17T03:35:06;98712.09;;;3.28;100.00
70445;BME280;57902;49.638;11.070;2023-05-17T03:37:33;98706.22;;;3.35;100.00
70445;BME280;57902;49.638;11.070;2023-05-17T03:40:00;98710.44;;;3.36;100.00
70445;BME280;57902;49.638;11.070;2023-05-17T03:42:26;98716.41;;;3.37;100.00
70445;BME280;57902;49.638;11.070;2023-05-17T03:44:53;98717.28;;;3.43;100.00
70445;BME280;57902;49.638;11.070;2023-05-17T03:47:20;98718.16;;;3.47;100.00
70445;BME280;57902;49.638;11.070;2023-05-17T03:49:49;98725.88;;;3.58;100.00
70445;BME280;57902;49.638;11.070;2023-05-17T03:52:16;98720.81;;;3.65;100.00
70445;BME280;57902;49.638;11.070;2023-05-17T03:54:42;98720.00;;;3.77;100.00
70445;BME280;57902;49.638;11.070;2023-05-17T03:57:10;98721.75;;;3.86;100.00
70445;BME280;57902;49.638;11.070;2023-05-17T03:59:37;98723.50;;;3.96;99.73
70445;BME280;57902;49.638;11.070;2023-05-17T04:02:04;98721.81;;;3.95;98.68
70445;BME280;57902;49.638;11.070;2023-05-17T04:04:30;98731.19;;;4.04;98.56
70445;BME280;57902;49.638;11.070;2023-05-17T04:06:57;98736.31;;;4.12;98.83
70445;BME280;57902;49.638;11.070;2023-05-17T04:09:24;98736.41;;;4.30;98.30
70445;BME280;57902;49.638;11.070;2023-05-17T04:11:51;98736.41;;;4.47;97.16
70445;BME280;57902;49.638;11.070;2023-05-17T04:14:17;98738.19;;;4.95;96.65
70445;BME280;57902;49.638;11.070;2023-05-17T04:16:44;98739.88;;;5.22;91.72
70445;BME280;57902;49.638;11.070;2023-05-17T04:19:11;98738.13;;;5.50;91.71
70445;BME280;57902;49.638;11.070;2023-05-17T04:21:38;98736.34;;;5.86;90.15
70445;BME280;57902;49.638;11.070;2023-05-17T04:24:05;98742.19;;;6.30;88.03
70445;BME280;57902;49.638;11.070;2023-05-17T04:26:32;98749.53;;;6.87;85.22
70445;BME280;57902;49.638;11.070;2023-05-17T04:28:58;98757.41;;;7.63;79.94
70445;BME280;57902;49.638;11.070;2023-05-17T04:31:25;98750.44;;;8.49;75.07
70445;BME280;57902;49.638;11.070;2023-05-17T04:33:52;98756.94;;;9.30;72.48
70445;BME280;57902;49.638;11.070;2023-05-17T04:36:18;98751.50;;;9.93;69.98
70445;BME280;57902;49.638;11.070;2023-05-17T04:38:45;98755.22;;;10.64;66.05
70445;BME280;57902;49.638;11.070;2023-05-17T04:41:12;98758.56;;;11.06;63.39
70445;BME280;57902;49.638;11.070;2023-05-17T04:43:38;98752.13;;;11.24;62.34
70445;BME280;57902;49.638;11.070;2023-05-17T04:46:05;98753.78;;;11.26;63.50
70445;BME280;57902;49.638;11.070;2023-05-17T04:48:32;98763.34;;;10.85;63.36
70445;BME280;57902;49.638;11.070;2023-05-17T04:51:00;98760.41;;;10.61;64.37
70445;BME280;57902;49.638;11.070;2023-05-17T04:53:27;98764.00;;;10.13;65.79
70445;BME280;57902;49.638;11.070;2023-05-17T04:55:53;98775.72;;;9.83;68.41
70445;BME280;57902;49.638;11.070;2023-05-17T04:58:20;98773.69;;;10.01;67.18
70445;BME280;57902;49.638;11.070;2023-05-17T05:00:46;98779.75;;;9.96;67.15
70445;BME280;57902;49.638;11.070;2023-05-17T05:03:13;98780.06;;;9.33;70.90
70445;BME280;57902;49.638;11.070;2023-05-17T05:05:40;98782.41;;;8.90;73.68
70445;BME280;57902;49.638;11.070;2023-05-17T05:08:08;98780.94;;;8.74;75.50
70445;BME280;57902;49.638;11.070;2023-05-17T05:10:34;98786.03;;;8.77;76.13
70445;BME280;57902;49.638;11.070;2023-05-17T05:13:01;98784.38;;;8.73;75.55
70445;BME280;57902;49.638;11.070;2023-05-17T05:15:28;98792.78;;;8.84;73.88
70445;BME280;57902;49.638;11.070;2023-05-17T05:17:54;98784.16;;;8.88;74.06
70445;BME280;57902;49.638;11.070;2023-05-17T05:20:21;98794.94;;;9.14;74.06
70445;BME280;57902;49.638;11.070;2023-05-17T05:22:48;98798.88;;;9.35;70.80
70445;BME280;57902;49.638;11.070;2023-05-17T05:25:14;98811.44;;;10.02;68.82
70445;BME280;57902;49.638;11.070;2023-05-17T05:27:41;98806.00;;;10.61;64.08
70445;BME280;57902;49.638;11.070;2023-05-17T05:30:08;98813.06;;;10.92;64.76
70445;BME280;57902;49.638;11.070;2023-05-17T05:32:34;98818.03;;;10.99;63.25
70445;BME280;57902;49.638;11.070;2023-05-17T05:35:03;98819.13;;;11.27;61.88
70445;BME280;57902;49.638;11.070;2023-05-17T05:37:30;98821.72;;;11.27;62.13
70445;BME280;57902;49.638;11.070;2023-05-17T05:39:58;98820.88;;;10.89;62.59
70445;BME280;57902;49.638;11.070;2023-05-17T05:42:25;98821.28;;;11.08;62.05
70445;BME280;57902;49.638;11.070;2023-05-17T05:44:52;98824.69;;;11.10;61.15
70445;BME280;57902;49.638;11.070;2023-05-17T05:47:19;98827.75;;;10.88;63.37
70445;BME280;57902;49.638;11.070;2023-05-17T05:49:46;98835.19;;;11.02;61.90
70445;BME280;57902;49.638;11.070;2023-05-17T05:52:12;98835.69;;;11.18;63.13
70445;BME280;57902;49.638;11.070;2023-05-17T05:54:39;98839.97;;;11.19;63.24
70445;BME280;57902;49.638;11.070;2023-05-17T05:57:05;98844.53;;;11.08;64.29
70445;BME280;57902;49.638;11.070;2023-05-17T05:59:32;98853.50;;;10.91;64.96
70445;BME280;57902;49.638;11.070;2023-05-17T06:01:58;98852.75;;;11.24;63.17
70445;BME280;57902;49.638;11.070;2023-05-17T06:04:27;98854.91;;;11.05;63.66
70445;BME280;57902;49.638;11.070;2023-05-17T06:07:11;98850.53;;;11.08;63.99
70445;BME280;57902;49.638;11.070;2023-05-17T06:09:40;98856.50;;;11.10;63.73
70445;BME280;57902;49.638;11.070;2023-05-17T06:12:07;98865.09;;;11.11;64.05
70445;BME280;57902;49.638;11.070;2023-05-17T06:14:34;98868.25;;;11.24;63.86
70445;BME280;57902;49.638;11.070;2023-05-17T06:17:02;98865.06;;;11.50;62.67
70445;BME280;57902;49.638;11.070;2023-05-17T06:19:47;98861.41;;;11.21;64.59
70445;BME280;57902;49.638;11.070;2023-05-17T06:22:14;98861.38;;;11.23;63.13
70445;BME280;57902;49.638;11.070;2023-05-17T06:24:41;98855.28;;;11.27;64.79
70445;BME280;57902;49.638;11.070;2023-05-17T06:27:08;98861.69;;;11.46;64.57
70445;BME280;57902;49.638;11.070;2023-05-17T06:29:36;98872.88;;;11.81;62.95
70445;BME280;57902;49.638;11.070;2023-05-17T06:32:03;98867.59;;;11.86;62.22
70445;BME280;57902;49.638;11.070;2023-05-17T06:34:30;98876.47;;;11.76;63.12
70445;BME280;57902;49.638;11.070;2023-05-17T06:36:57;98870.59;;;11.70;63.94
70445;BME280;57902;49.638;11.070;2023-05-17T06:39:23;98877.41;;;12.07;61.78
70445;BME280;57902;49.638;11.070;2023-05-17T06:41:50;98875.13;;;11.61;64.31
70445;BME280;57902;49.638;11.070;2023-05-17T06:44:16;98878.91;;;11.46;66.41
70445;BME280;57902;49.638;11.070;2023-05-17T06:46:43;98876.06;;;11.56;64.30
70445;BME280;57902;49.638;11.070;2023-05-17T06:49:09;98876.94;;;11.57;65.66
70445;BME280;57902;49.638;11.070;2023-05-17T06:51:36;98879.81;;;11.81;63.52
70445;BME280;57902;49.638;11.070;2023-05-17T06:54:04;98877.13;;;11.48;64.13
70445;BME280;57902;49.638;11.070;2023-05-17T06:56:34;98870.03;;;11.94;63.16
70445;BME280;57902;49.638;11.070;2023-05-17T06:59:00;98877.75;;;11.95;63.37
70445;BME280;57902;49.638;11.070;2023-05-17T07:01:30;98875.97;;;11.97;63.61
70445;BME280;57902;49.638;11.070;2023-05-17T07:03:57;98882.25;;;12.20;62.64
70445;BME280;57902;49.638;11.070;2023-05-17T07:06:23;98883.88;;;12.24;62.17
70445;BME280;57902;49.638;11.070;2023-05-17T07:08:50;98889.16;;;12.19;62.69
70445;BME280;57902;49.638;11.070;2023-05-17T07:11:16;98884.53;;;12.32;62.51
70445;BME280;57902;49.638;11.070;2023-05-17T07:13:45;98881.84;;;12.35;61.87
70445;BME280;57902;49.638;11.070;2023-05-17T07:16:12;98878.09;;;12.47;60.58
70445;BME280;57902;49.638;11.070;2023-05-17T07:18:38;98879.13;;;12.40;61.25
70445;BME280;57902;49.638;11.070;2023-05-17T07:21:05;98873.38;;;12.62;61.31
70445;BME280;57902;49.638;11.070;2023-05-17T07:23:31;98873.16;;;12.69;60.27
70445;BME280;57902;49.638;11.070;2023-05-17T07:25:58;98875.56;;;12.75;59.07
70445;BME280;57902;49.638;11.070;2023-05-17T07:28:24;98878.38;;;12.36;62.31
70445;BME280;57902;49.638;11.070;2023-05-17T07:30:51;98873.28;;;12.65;60.10
70445;BME280;57902;49.638;11.070;2023-05-17T07:33:17;98880.63;;;12.78;60.10
70445;BME280;57902;49.638;11.070;2023-05-17T07:35:44;98871.53;;;12.65;60.79
70445;BME280;57902;49.638;11.070;2023-05-17T07:38:11;98878.88;;;12.81;60.63
70445;BME280;57902;49.638;11.070;2023-05-17T07:40:37;98874.75;;;12.73;60.56
70445;BME280;57902;49.638;11.070;2023-05-17T07:43:04;98880.38;;;12.88;61.57
70445;BME280;57902;49.638;11.070;2023-05-17T07:45:31;98880.50;;;13.41;59.57
70445;BME280;57902;49.638;11.070;2023-05-17T07:47:57;98887.44;;;13.94;55.26
70445;BME280;57902;49.638;11.070;2023-05-17T07:50:24;98888.25;;;14.22;53.82
70445;BME280;57902;49.638;11.070;2023-05-17T07:52:51;98891.50;;;14.02;54.93
70445;BME280;57902;49.638;11.070;2023-05-17T07:55:21;98875.41;;;13.92;59.14
70445;BME280;57902;49.638;11.070;2023-05-17T07:57:47;98880.13;;;14.80;53.17
70445;BME280;57902;49.638;11.070;2023-05-17T08:00:14;98880.41;;;14.96;52.42
70445;BME280;57902;49.638;11.070;2023-05-17T08:02:44;98877.41;;;15.07;52.64
70445;BME280;57902;49.638;11.070;2023-05-17T08:05:11;98880.91;;;15.28;49.88
70445;BME280;57902;49.638;11.070;2023-05-17T08:07:38;98879.41;;;14.76;52.36
70445;BME280;57902;49.638;11.070;2023-05-17T08:10:05;98888.38;;;14.42;52.35
70445;BME280;57902;49.638;11.070;2023-05-17T08:12:31;98886.69;;;14.16;52.98
70445;BME280;57902;49.638;11.070;2023-05-17T08:14:58;98885.41;;;13.77;56.30
70445;BME280;57902;49.638;11.070;2023-05-17T08:17:25;98885.50;;;14.01;54.47
70445;BME280;57902;49.638;11.070;2023-05-17T08:19:57;98886.53;;;13.95;56.27
70445;BME280;57902;49.638;11.070;2023-05-17T08:22:26;98885.59;;;13.98;54.25
70445;BME280;57902;49.638;11.070;2023-05-17T08:24:54;98889.47;;;13.58;54.88
70445;BME280;57902;49.638;11.070;2023-05-17T08:27:21;98884.88;;;13.93;55.97
70445;BME280;57902;49.638;11.070;2023-05-17T08:29:47;98887.81;;;14.09;53.81
70445;BME280;57902;49.638;11.070;2023-05-17T08:32:14;98894.09;;;14.27;52.32
70445;BME280;57902;49.638;11.070;2023-05-17T08:34:40;98888.72;;;14.33;53.87
70445;BME280;57902;49.638;11.070;2023-05-17T08:37:10;98884.94;;;13.91;54.79
70445;BME280;57902;49.638;11.070;2023-05-17T08:39:37;98884.19;;;13.61;54.72
70445;BME280;57902;49.638;11.070;2023-05-17T08:42:07;98884.00;;;13.40;56.72
70445;BME280;57902;49.638;11.070;2023-05-17T08:44:33;98882.22;;;13.42;55.46
70445;BME280;57902;49.638;11.070;2023-05-17T08:47:02;98876.47;;;13.31;57.79
70445;BME280;57902;49.638;11.070;2023-05-17T08:49:29;98880.09;;;13.25;58.54
70445;BME280;57902;49.638;11.070;2023-05-17T08:52:00;98892.91;;;13.30;56.61
70445;BME280;57902;49.638;11.070;2023-05-17T08:54:28;98884.19;;;13.34;56.61
70445;BME280;57902;49.638;11.070;2023-05-17T08:56:58;98889.78;;;13.20;56.28
70445;BME280;57902;49.638;11.070;2023-05-17T08:59:25;98888.38;;;13.38;55.79
70445;BME280;57902;49.638;11.070;2023-05-17T09:01:59;98886.84;;;13.59;55.44
70445;BME280;57902;49.638;11.070;2023-05-17T09:04:28;98884.06;;;13.65;53.56
70445;BME280;57902;49.638;11.070;2023-05-17T09:06:55;98882.22;;;13.42;55.20
70445;BME280;57902;49.638;11.070;2023-05-17T09:09:21;98880.94;;;12.98;57.45
70445;BME280;57902;49.638;11.070;2023-05-17T09:11:48;98888.50;;;13.05;55.38
70445;BME280;57902;49.638;11.070;2023-05-17T09:14:15;98882.97;;;12.88;56.32
70445;BME280;57902;49.638;11.070;2023-05-17T09:16:43;98887.78;;;12.70;57.16
70445;BME280;57902;49.638;11.070;2023-05-17T09:19:15;98888.81;;;12.65;58.75
70445;BME280;57902;49.638;11.070;2023-05-17T09:21:45;98893.66;;;12.46;59.86
70445;BME280;57902;49.638;11.070;2023-05-17T09:24:18;98896.69;;;12.60;59.39
70445;BME280;57902;49.638;11.070;2023-05-17T09:26:52;98895.63;;;12.67;59.48
70445;BME280;57902;49.638;11.070;2023-05-17T09:29:18;98902.25;;;12.77;59.88
70445;BME280;57902;49.638;11.070;2023-05-17T09:31:44;98903.91;;;12.78;58.25
70445;BME280;57902;49.638;11.070;2023-05-17T09:34:11;98913.47;;;12.76;58.19
70445;BME280;57902;49.638;11.070;2023-05-17T09:36:52;98903.34;;;12.69;58.75
70445;BME280;57902;49.638;11.070;2023-05-17T09:39:20;98903.69;;;12.56;61.35
70445;BME280;57902;49.638;11.070;2023-05-17T09:41:46;98913.00;;;12.62;59.52
70445;BME280;57902;49.638;11.070;2023-05-17T09:44:15;98913.16;;;12.57;61.93
70445;BME280;57902;49.638;11.070;2023-05-17T09:46:46;98915.88;;;12.53;60.90
70445;BME280;57902;49.638;11.070;2023-05-17T09:49:14;98919.59;;;12.42;62.35
70445;BME280;57902;49.638;11.070;2023-05-17T09:51:43;98915.69;;;12.59;58.96
70445;BME280;57902;49.638;11.070;2023-05-17T09:54:10;98925.31;;;12.54;58.19
70445;BME280;57902;49.638;11.070;2023-05-17T09:56:37;98923.75;;;12.48;58.17
70445;BME280;57902;49.638;11.070;2023-05-17T09:59:14;98925.16;;;12.27;59.56
70445;BME280;57902;49.638;11.070;2023-05-17T10:01:44;98930.41;;;12.24;58.25
70445;BME280;57902;49.638;11.070;2023-05-17T10:04:15;98934.97;;;12.14;60.07
70445;BME280;57902;49.638;11.070;2023-05-17T10:06:47;98938.53;;;12.10;59.80
70445;BME280;57902;49.638;11.070;2023-05-17T10:09:20;98941.16;;;12.08;60.14
70445;BME280;57902;49.638;11.070;2023-05-17T10:11:51;98936.91;;;12.06;60.07
70445;BME280;57902;49.638;11.070;2023-05-17T10:14:29;98937.97;;;11.97;60.93
70445;BME280;57902;49.638;11.070;2023-05-17T10:17:00;98938.72;;;11.65;61.08
70445;BME280;57902;49.638;11.070;2023-05-17T10:19:29;98933.94;;;11.48;61.27
70445;BME280;57902;49.638;11.070;2023-05-17T10:21:57;98932.84;;;11.58;62.73
70445;BME280;57902;49.638;11.070;2023-05-17T10:24:44;98937.50;;;11.80;61.77
70445;BME280;57902;49.638;11.070;2023-05-17T10:27:12;98934.84;;;11.83;61.56
70445;BME280;57902;49.638;11.070;2023-05-17T10:29:39;98936.56;;;11.84;61.38
70445;BME280;57902;49.638;11.070;2023-05-17T10:32:08;98934.63;;;11.92;60.70
70445;BME280;57902;49.638;11.070;2023-05-17T10:34:37;98939.81;;;11.94;60.28
70445;BME280;57902;49.638;11.070;2023-05-17T10:37:23;98940.53;;;11.99;61.06
70445;BME280;57902;49.638;11.070;2023-05-17T10:40:11;98941.41;;;11.98;60.41
70445;BME280;57902;49.638;11.070;2023-05-17T10:42:46;98934.44;;;12.01;59.96
70445;BME280;57902;49.638;11.070;2023-05-17T10:45:19;98944.53;;;11.73;61.78
70445;BME280;57902;49.638;11.070;2023-05-17T10:47:53;98937.53;;;11.78;62.42
70445;BME280;57902;49.638;11.070;2023-05-17T10:50:25;98936.47;;;11.87;61.68
70445;BME280;57902;49.638;11.070;2023-05-17T10:52:58;98937.13;;;11.97;61.80
70445;BME280;57902;49.638;11.070;2023-05-17T10:55:41;98932.56;;;12.06;61.08
70445;BME280;57902;49.638;11.070;2023-05-17T11:00:45;98933.94;;;12.20;60.97
70445;BME280;57902;49.638;11.070;2023-05-17T11:03:28;98931.38;;;12.20;60.95
70445;BME280;57902;49.638;11.070;2023-05-17T11:06:17;98925.56;;;12.12;61.34
70445;BME280;57902;49.638;11.070;2023-05-17T11:09:07;98927.19;;;12.16;60.36
70445;BME280;57902;49.638;11.070;2023-05-17T11:12:03;98922.06;;;12.14;60.69
70445;BME280;57902;49.638;11.070;2023-05-17T11:14:53;98925.75;;;12.04;60.37
70445;BME280;57902;49.638;11.070;2023-05-17T11:20:02;98913.69;;;12.04;60.47
70445;BME280;57902;49.638;11.070;2023-05-17T11:22:40;98920.72;;;11.98;61.56
70445;BME280;57902;49.638;11.070;2023-05-17T11:25:11;98910.44;;;11.96;61.76
70445;BME280;57902;49.638;11.070;2023-05-17T11:27:46;98915.81;;;11.87;62.37
70445;BME280;57902;49.638;11.070;2023-05-17T11:30:29;98913.59;;;12.07;61.92
70445;BME280;57902;49.638;11.070;2023-05-17T11:33:05;98917.44;;;12.25;61.51
70445;BME280;57902;49.638;11.070;2023-05-17T11:35:52;98915.34;;;12.40;59.64
70445;BME280;57902;49.638;11.070;2023-05-17T11:38:27;98908.97;;;12.52;59.45
70445;BME280;57902;49.638;11.070;2023-05-17T11:41:19;98909.28;;;12.72;58.18
70445;BME280;57902;49.638;11.070;2023-05-17T11:43:50;98909.78;;;12.85;57.10
70445;BME280;57902;49.638;11.070;2023-05-17T11:46:18;98904.06;;;12.74;57.74
70445;BME280;57902;49.638;11.070;2023-05-17T11:48:50;98903.13;;;12.76;57.55
70445;BME280;57902;49.638;11.070;2023-05-17T11:51:20;98910.28;;;12.98;55.86
70445;BME280;57902;49.638;11.070;2023-05-17T11:53:53;98895.63;;;12.97;57.43
70445;BME280;57902;49.638;11.070;2023-05-17T11:56:26;98900.47;;;13.08;56.20
70445;BME280;57902;49.638;11.070;2023-05-17T11:59:09;98900.09;;;13.22;57.23
70445;BME280;57902;49.638;11.070;2023-05-17T12:01:44;98899.97;;;13.25;54.99
70445;BME280;57902;49.638;11.070;2023-05-17T12:04:12;98895.44;;;13.31;55.39
70445;BME280;57902;49.638;11.070;2023-05-17T12:06:39;98894.19;;;13.46;55.17
70445;BME280;57902;49.638;11.070;2023-05-17T12:09:14;98890.78;;;13.44;54.05
70445;BME280;57902;49.638;11.070;2023-05-17T12:11:43;98885.28;;;13.25;54.52
70445;BME280;57902;49.638;11.070;2023-05-17T12:14:14;98894.44;;;13.37;54.48
70445;BME280;57902;49.638;11.070;2023-05-17T12:16:41;98888.69;;;13.56;55.17
70445;BME280;57902;49.638;11.070;2023-05-17T12:19:18;98879.63;;;13.69;53.97
70445;BME280;57902;49.638;11.070;2023-05-17T12:21:46;98886.69;;;13.91;53.81
70445;BME280;57902;49.638;11.070;2023-05-17T12:24:13;98878.72;;;13.97;53.28
70445;BME280;57902;49.638;11.070;2023-05-17T12:26:44;98885.06;;;14.13;51.69
70445;BME280;57902;49.638;11.070;2023-05-17T12:29:17;98890.25;;;14.13;50.52
70445;BME280;57902;49.638;11.070;2023-05-17T12:31:49;98877.59;;;14.04;50.32
70445;BME280;57902;49.638;11.070;2023-05-17T12:34:16;98882.63;;;13.83;52.88
70445;BME280;57902;49.638;11.070;2023-05-17T12:36:45;98884.72;;;13.72;53.13
70445;BME280;57902;49.638;11.070;2023-05-17T12:39:13;98886.84;;;13.59;54.80
70445;BME280;57902;49.638;11.070;2023-05-17T12:41:44;98884.22;;;13.88;53.66
70445;BME280;57902;49.638;11.070;2023-05-17T12:44:16;98889.34;;;13.89;53.44
70445;BME280;57902;49.638;11.070;2023-05-17T12:47:15;98890.03;;;13.94;52.62
70445;BME280;57902;49.638;11.070;2023-05-17T12:49:54;98892.28;;;14.05;52.74
70445;BME280;57902;49.638;11.070;2023-05-17T12:52:26;98889.25;;;14.17;51.78
70445;BME280;57902;49.638;11.070;2023-05-17T12:55:03;98897.75;;;14.21;50.69
70445;BME280;57902;49.638;11.070;2023-05-17T12:57:30;98899.72;;;14.14;50.42
70445;BME280;57902;49.638;11.070;2023-05-17T12:59:59;98896.69;;;14.27;49.24
70445;BME280;57902;49.638;11.070;2023-05-17T13:02:34;98894.81;;;14.32;50.41
70445;BME280;57902;49.638;11.070;2023-05-17T13:05:17;98894.97;;;14.27;49.15
70445;BME280;57902;49.638;11.070;2023-05-17T13:07:46;98897.44;;;14.30;51.90
70445;BME280;57902;49.638;11.070;2023-05-17T13:10:23;98901.09;;;14.25;52.27
70445;BME280;57902;49.638;11.070;2023-05-17T13:12:58;98902.72;;;14.52;49.46
70445;BME280;57902;49.638;11.070;2023-05-17T13:15:29;98899.97;;;14.32;50.30
70445;BME280;57902;49.638;11.070;2023-05-17T13:17:58;98898.41;;;14.28;48.46
70445;BME280;57902;49.638;11.070;2023-05-17T13:20:34;98902.59;;;14.56;47.45
70445;BME280;57902;49.638;11.070;2023-05-17T13:23:05;98893.00;;;14.58;49.59